Pence, Wisconsin
Current Conditions -  °F | °C
As of 3:35 PM on Wednesday 17 Dec 2014 (Local Time) from KIWD Reporting Station
Overcast Overcast  
Wind Chill: 15°   Ceiling: 1400
Heat Index: 21°   Visibility: 10mi
Dew Point: 19°   Wind: 5mph
Humidity: 93%   Direction: 350°N
Pressure: 30.19"   Gusts: NA
Location:  46.3634°N, 90.2665°W
Report Text: KIWD 172135Z AUTO 35004KT 10SM OVC014 M06/M07 A3019 RMK AO1
Loading
Personal Weather Stations






























Interactive Weather Map New forecast layout! Learn more

10-Day Weather Forecast

Advertisements
Track Severe Weather on mobile